Time;durP1;ratioP1;P1;durP2;ratioP2;P2;SDS_P1;SDS_P2;PMS_P1;PMS_P2;Temp;Humidity;BMP_temperature;BMP_pressure;BME280_temperature;BME280_humidity;BME280_pressure;Samples;Min_cycle;Max_cycle;Signal;HPM_P1;HPM_P2
2022/02/06 00:01:59;;;;;;;3.63;1.67;;;3.70;69.30;;;;;;4981397;28;20038;-68
2022/02/06 00:04:25;;;;;;;4.80;1.55;;;3.70;69.30;;;;;;4979404;28;20053;-68
2022/02/06 00:06:52;;;;;;;5.03;1.48;;;3.70;69.40;;;;;;4978577;28;20506;-67
2022/02/06 00:09:18;;;;;;;4.38;1.60;;;3.70;69.40;;;;;;4976309;28;20497;-67
2022/02/06 00:11:43;;;;;;;5.90;1.73;;;3.70;69.50;;;;;;4979517;28;20182;-67
2022/02/06 00:14:09;;;;;;;6.20;1.52;;;3.70;69.60;;;;;;4976870;28;20134;-68
2022/02/06 00:16:35;;;;;;;5.60;1.52;;;3.70;69.60;;;;;;4978183;28;20418;-68
2022/02/06 00:19:00;;;;;;;3.78;1.60;;;3.70;69.70;;;;;;4994070;28;20029;-68
2022/02/06 00:21:26;;;;;;;7.40;1.73;;;3.70;69.60;;;;;;4979065;28;20034;-67
2022/02/06 00:23:54;;;;;;;3.97;1.40;;;3.70;69.60;;;;;;4979619;28;20100;-67
2022/02/06 00:26:39;;;;;;;4.97;1.48;;;3.70;69.80;;;;;;4979498;28;20249;-67
2022/02/06 00:34:44;;;;;;;4.30;1.38;;;3.70;70.00;;;;;;4976998;28;20046;-68
2022/02/06 00:39:58;;;;;;;7.07;1.80;;;3.70;70.20;;;;;;4953404;28;20031;-68
2022/02/06 00:42:24;;;;;;;4.93;1.60;;;3.70;70.30;;;;;;4976112;28;20048;-68
2022/02/06 00:44:49;;;;;;;3.85;1.65;;;3.60;70.30;;;;;;4973456;28;20034;-68
2022/02/06 00:47:15;;;;;;;5.18;1.50;;;3.70;70.40;;;;;;4974693;28;20034;-67
2022/02/06 00:49:42;;;;;;;6.32;1.30;;;3.60;70.50;;;;;;4975072;28;20034;-67
2022/02/06 00:52:14;;;;;;;4.88;1.45;;;3.70;71.50;;;;;;4973457;28;20133;-68
2022/02/06 00:54:39;;;;;;;6.18;1.27;;;3.60;70.60;;;;;;4973680;28;20169;-68
2022/02/06 00:57:06;;;;;;;5.95;2.03;;;3.70;70.70;;;;;;4975603;28;20408;-69
2022/02/06 00:59:32;;;;;;;6.18;1.83;;;3.70;70.80;;;;;;4974842;28;20105;-68
2022/02/06 01:01:58;;;;;;;5.78;1.67;;;3.60;70.60;;;;;;4973687;28;20580;-68
2022/02/06 01:04:23;;;;;;;4.47;1.75;;;3.60;70.80;;;;;;4974777;28;20035;-67
2022/02/06 01:06:49;;;;;;;3.88;1.70;;;3.70;70.80;;;;;;4980760;28;20555;-68
2022/02/06 01:09:17;;;;;;;3.47;1.63;;;3.60;70.80;;;;;;4974903;28;20037;-67
2022/02/06 01:11:43;;;;;;;5.70;1.80;;;3.60;70.90;;;;;;4974618;28;20034;-68
2022/02/06 01:14:19;;;;;;;9.90;2.10;;;3.60;70.90;;;;;;4975798;28;20053;-68
2022/02/06 01:17:20;;;;;;;4.78;1.75;;;3.60;71.00;;;;;;4976118;28;20085;-68
2022/02/06 01:19:42;;;;;;;4.53;1.60;;;3.60;70.90;;;;;;4971356;28;20494;-67
2022/02/06 01:22:11;;;;;;;6.35;1.88;;;3.60;71.00;;;;;;4976383;28;20050;-68
2022/02/06 01:24:57;;;;;;;4.05;2.03;;;3.60;71.00;;;;;;4975295;28;20141;-68
2022/02/06 01:27:33;;;;;;;4.93;2.00;;;3.50;71.00;;;;;;4974090;28;20608;-68
2022/02/06 01:30:10;;;;;;;4.80;1.80;;;3.50;71.00;;;;;;4974331;28;20126;-68
2022/02/06 01:32:43;;;;;;;5.40;2.10;;;3.50;71.10;;;;;;4974274;28;20101;-68
2022/02/06 01:35:14;;;;;;;4.70;1.83;;;3.50;71.20;;;;;;4977600;28;20034;-69
2022/02/06 01:37:54;;;;;;;5.13;1.75;;;3.50;71.20;;;;;;4975878;28;20041;-67
2022/02/06 01:40:38;;;;;;;9.45;1.95;;;3.50;71.30;;;;;;4974333;28;20453;-67
2022/02/06 01:43:13;;;;;;;7.90;1.60;;;3.50;71.30;;;;;;4974808;28;20050;-66
2022/02/06 02:24:47;;;;;;;5.45;1.40;;;3.60;71.90;;;;;;4980194;28;20144;-68
2022/02/06 02:43:38;;;;;;;;;;;3.60;72.00;;;;;;4976715;28;20181;-68
2022/02/06 02:48:17;;;;;;;4.68;1.30;;;3.60;71.80;;;;;;4978058;28;20038;-68
2022/02/06 02:50:49;;;;;;;4.68;1.30;;;3.70;71.90;;;;;;4976540;28;20038;-67
2022/02/06 02:55:56;;;;;;;5.88;1.30;;;3.70;72.00;;;;;;4977282;28;20034;-68
2022/02/06 03:01:18;;;;;;;5.57;1.10;;;3.70;72.10;;;;;;4974652;28;20054;-68
2022/02/06 03:03:44;;;;;;;3.38;1.20;;;3.80;72.10;;;;;;4975821;28;20437;-67
2022/02/06 03:06:10;;;;;;;3.47;1.27;;;3.80;72.20;;;;;;4977613;28;20041;-68
2022/02/06 03:08:38;;;;;;;4.25;1.25;;;3.80;72.30;;;;;;4980590;28;20064;-67
2022/02/06 03:11:08;;;;;;;6.32;1.35;;;3.80;72.30;;;;;;4977968;28;20050;-68
2022/02/06 03:16:24;;;;;;;2.67;1.35;;;3.80;72.30;;;;;;4968779;28;20049;-67
2022/02/06 03:21:25;;;;;;;5.15;1.27;;;3.90;72.20;;;;;;4976691;28;20039;-69
2022/02/06 03:23:54;;;;;;;6.40;1.65;;;3.90;72.20;;;;;;4975914;28;20740;-68
2022/02/06 03:26:22;;;;;;;6.72;1.10;;;3.90;72.20;;;;;;4977625;28;20420;-68
2022/02/06 03:28:49;;;;;;;6.72;1.60;;;4.00;72.20;;;;;;4977851;28;20035;-68
2022/02/06 03:31:15;;;;;;;4.53;1.20;;;4.00;72.10;;;;;;4976607;28;20042;-67
2022/02/06 03:33:41;;;;;;;7.43;1.52;;;4.00;72.10;;;;;;4977479;28;20045;-67
2022/02/06 03:36:07;;;;;;;5.47;1.35;;;4.00;72.10;;;;;;4977017;28;20099;-68
2022/02/06 03:38:33;;;;;;;4.90;1.45;;;4.00;72.00;;;;;;4976425;28;20031;-68
2022/02/06 03:41:04;;;;;;;2.92;1.33;;;4.00;72.00;;;;;;4976678;28;20033;-67
2022/02/06 03:43:52;;;;;;;5.18;1.55;;;4.10;72.20;;;;;;4976876;28;20464;-68
2022/02/06 03:49:20;;;;;;;3.75;1.20;;;4.10;72.00;;;;;;4966089;28;20034;-71
2022/02/06 03:51:46;;;;;;;5.97;1.25;;;4.10;72.00;;;;;;4972181;28;20077;-67
2022/02/06 03:54:12;;;;;;;4.78;1.20;;;4.10;72.00;;;;;;4976116;28;20046;-68
2022/02/06 03:56:40;;;;;;;7.25;1.20;;;4.10;72.00;;;;;;4975792;28;20129;-68
2022/02/06 03:59:05;;;;;;;7.50;1.25;;;4.10;72.20;;;;;;4976146;28;20663;-66
2022/02/06 04:01:31;;;;;;;3.80;1.10;;;4.10;72.10;;;;;;4975798;28;20046;-67
2022/02/06 04:03:58;;;;;;;4.53;1.08;;;4.20;72.00;;;;;;4975608;28;20039;-68
2022/02/06 04:06:26;;;;;;;8.02;1.40;;;4.20;72.10;;;;;;4977046;28;20577;-68
2022/02/06 04:08:52;;;;;;;5.68;1.30;;;4.20;72.00;;;;;;4979188;28;20058;-68
2022/02/06 04:11:25;;;;;;;4.68;1.08;;;4.30;72.10;;;;;;4977922;28;20089;-67
2022/02/06 04:14:21;;;;;;;4.03;1.30;;;4.30;71.90;;;;;;4974818;28;20039;-67
2022/02/06 04:16:48;;;;;;;5.07;1.00;;;4.30;71.90;;;;;;4975701;28;20038;-67
2022/02/06 04:19:20;;;;;;;2.70;0.90;;;4.30;71.80;;;;;;4975543;28;20042;-66
2022/02/06 04:21:46;;;;;;;3.80;1.40;;;4.30;71.70;;;;;;4974352;28;20045;-68
2022/02/06 04:24:12;;;;;;;5.05;1.15;;;4.40;71.70;;;;;;4976004;28;20666;-68
2022/02/06 04:26:39;;;;;;;4.72;1.08;;;4.40;71.70;;;;;;4974521;28;20034;-68
2022/02/06 04:29:05;;;;;;;5.43;1.40;;;4.40;71.60;;;;;;4975312;28;20030;-68
2022/02/06 04:31:31;;;;;;;5.03;1.10;;;4.40;71.60;;;;;;4973293;28;20049;-69
2022/02/06 04:33:57;;;;;;;3.45;1.00;;;4.40;71.60;;;;;;4975359;28;20061;-68
2022/02/06 04:36:27;;;;;;;4.63;1.00;;;4.40;71.60;;;;;;4977848;28;20058;-68
2022/02/06 04:39:16;;;;;;;6.40;1.23;;;4.40;71.50;;;;;;4989888;28;20031;-68
2022/02/06 04:41:56;;;;;;;5.10;1.15;;;4.40;71.50;;;;;;4973046;28;20042;-68
2022/02/06 05:27:35;;;;;;;2.83;1.10;;;4.60;71.00;;;;;;4975365;28;20028;-67
2022/02/06 05:30:04;;;;;;;3.90;1.08;;;4.60;71.00;;;;;;4979453;28;20035;-65
2022/02/06 05:32:38;;;;;;;3.22;1.20;;;4.60;70.90;;;;;;4977952;28;20417;-68
2022/02/06 05:35:06;;;;;;;3.97;0.93;;;4.60;71.00;;;;;;4978985;28;20034;-67
2022/02/06 05:37:32;;;;;;;5.43;1.42;;;4.60;70.90;;;;;;4978900;28;20034;-67
2022/02/06 05:39:58;;;;;;;4.55;1.20;;;4.60;70.90;;;;;;4979220;28;20441;-66
2022/02/06 05:42:24;;;;;;;3.35;1.23;;;4.60;71.00;;;;;;4978509;28;20051;-67
2022/02/06 05:44:55;;;;;;;5.18;1.13;;;4.70;71.00;;;;;;4978123;28;20704;-68
2022/02/06 05:47:26;;;;;;;5.20;1.00;;;4.60;70.90;;;;;;4977778;28;20039;-68
2022/02/06 05:49:53;;;;;;;4.15;1.20;;;4.70;71.00;;;;;;4978665;28;20035;-67
2022/02/06 05:52:19;;;;;;;3.28;1.10;;;4.60;70.90;;;;;;4991544;28;20042;-67
2022/02/06 05:54:45;;;;;;;6.45;1.08;;;4.70;70.90;;;;;;4977219;28;20202;-67
2022/02/06 05:57:11;;;;;;;3.75;1.80;;;4.70;71.00;;;;;;4991121;28;20202;-68
2022/02/06 05:59:37;;;;;;;4.65;1.50;;;4.70;70.90;;;;;;4980796;28;20094;-67
2022/02/06 06:02:03;;;;;;;9.73;3.13;;;4.70;70.80;;;;;;4977894;28;20137;-68
2022/02/06 06:04:28;;;;;;;8.00;2.97;;;4.70;70.80;;;;;;4978024;28;20082;-67
2022/02/06 06:06:54;;;;;;;6.72;1.70;;;4.70;70.80;;;;;;4977852;28;20045;-67
2022/02/06 06:09:20;;;;;;;5.60;1.85;;;4.70;70.80;;;;;;4977039;28;20038;-68
2022/02/06 06:11:45;;;;;;;3.45;1.77;;;4.70;70.80;;;;;;4976704;28;20572;-67
2022/02/06 06:14:11;;;;;;;6.55;2.00;;;4.70;70.70;;;;;;4978096;28;20035;-68
2022/02/06 06:16:36;;;;;;;3.67;1.42;;;4.70;70.70;;;;;;4977554;28;20045;-67
2022/02/06 06:19:04;;;;;;;2.20;0.95;;;4.70;70.60;;;;;;4976860;28;20023;-68
2022/02/06 06:21:36;;;;;;;3.05;0.98;;;4.70;71.50;;;;;;4979104;28;20038;-68
2022/02/06 06:24:02;;;;;;;5.38;1.67;;;4.70;70.60;;;;;;4976929;28;20043;-68
2022/02/06 06:26:30;;;;;;;2.70;1.20;;;4.70;70.60;;;;;;4975729;28;20461;-68
2022/02/06 06:28:55;;;;;;;4.38;1.50;;;4.70;70.50;;;;;;4978804;28;20145;-67
2022/02/06 06:31:21;;;;;;;2.83;1.15;;;4.70;70.50;;;;;;4977952;28;20114;-68
2022/02/06 06:33:47;;;;;;;5.45;1.30;;;4.70;70.40;;;;;;4978174;28;20061;-67
2022/02/06 06:36:13;;;;;;;4.18;1.10;;;4.70;70.40;;;;;;4979080;28;20035;-68
2022/02/06 06:38:38;;;;;;;6.43;1.70;;;4.70;70.40;;;;;;4980953;28;20485;-67
2022/02/06 06:41:04;;;;;;;4.80;2.08;;;4.70;70.40;;;;;;4980941;28;20031;-68
2022/02/06 06:43:30;;;;;;;3.22;1.52;;;4.70;70.30;;;;;;4979178;28;20030;-68
2022/02/06 06:45:57;;;;;;;5.90;1.20;;;4.70;70.40;;;;;;4994868;28;20031;-67
2022/02/06 06:48:23;;;;;;;4.03;1.20;;;4.80;70.30;;;;;;4979928;28;20030;-68
2022/02/06 06:50:49;;;;;;;5.65;1.50;;;4.80;70.30;;;;;;4980690;28;20030;-68
2022/02/06 06:53:15;;;;;;;4.68;1.33;;;4.80;70.30;;;;;;4978743;28;20453;-69
2022/02/06 06:55:44;;;;;;;5.45;1.10;;;4.80;70.30;;;;;;4982259;28;20030;-69
2022/02/06 07:03:13;;;;;;;2.15;0.90;;;4.70;70.10;;;;;;4978954;28;20043;-67
2022/02/06 07:05:39;;;;;;;4.82;1.60;;;4.80;70.10;;;;;;4978378;28;20109;-68
2022/02/06 07:08:05;;;;;;;4.85;1.30;;;4.80;70.00;;;;;;4978933;28;20126;-68
2022/02/06 07:10:31;;;;;;;7.78;1.38;;;4.80;70.10;;;;;;4978346;28;20034;-68
2022/02/06 07:12:56;;;;;;;4.13;1.35;;;4.80;70.00;;;;;;4983794;28;20555;-68
2022/02/06 07:15:22;;;;;;;4.97;1.67;;;4.80;69.90;;;;;;4984681;28;20042;-67
2022/02/06 07:17:48;;;;;;;4.45;1.10;;;4.80;70.00;;;;;;4983995;28;20050;-69
2022/02/06 07:20:13;;;;;;;2.20;1.00;;;4.90;70.00;;;;;;4983989;28;20039;-69
2022/02/06 07:22:39;;;;;;;3.35;1.15;;;4.90;69.90;;;;;;4981628;28;20039;-68
2022/02/06 07:25:06;;;;;;;3.47;2.08;;;4.90;69.80;;;;;;4981943;28;20089;-68
2022/02/06 07:27:35;;;;;;;2.72;1.58;;;4.90;69.70;;;;;;4980985;28;20541;-68
2022/02/06 07:30:04;;;;;;;3.75;1.33;;;4.90;69.80;;;;;;4983173;28;20557;-65
2022/02/06 07:32:33;;;;;;;5.00;1.60;;;4.90;69.80;;;;;;4979854;28;20046;-67
2022/02/06 07:34:59;;;;;;;7.40;3.50;;;4.90;69.60;;;;;;4977982;28;20031;-68
2022/02/06 07:37:24;;;;;;;9.45;3.90;;;5.00;69.60;;;;;;4981306;28;20061;-68
2022/02/06 07:39:50;;;;;;;12.73;6.47;;;5.00;69.50;;;;;;4966457;28;20041;-67
2022/02/06 07:42:16;;;;;;;6.88;3.30;;;5.00;69.40;;;;;;4973473;28;20042;-68
2022/02/06 07:44:46;;;;;;;3.05;1.50;;;5.00;69.60;;;;;;4973316;28;20039;-68
2022/02/06 07:47:15;;;;;;;6.05;1.30;;;5.00;69.60;;;;;;4972134;28;20126;-69
2022/02/06 07:49:44;;;;;;;6.13;1.38;;;5.00;69.50;;;;;;4993361;28;20082;-67
2022/02/06 07:52:10;;;;;;;5.10;1.50;;;5.10;69.30;;;;;;4977215;28;20494;-68
2022/02/06 07:54:36;;;;;;;2.95;1.13;;;5.10;69.20;;;;;;4974337;28;20039;-68
2022/02/06 07:57:03;;;;;;;3.42;1.10;;;5.10;68.90;;;;;;4978402;28;20182;-69
2022/02/06 07:59:29;;;;;;;3.17;0.95;;;5.20;69.00;;;;;;4976249;28;20059;-67
2022/02/06 08:01:54;;;;;;;5.53;1.20;;;5.20;68.90;;;;;;4971626;28;20066;-68
2022/02/06 08:04:20;;;;;;;2.97;1.00;;;5.20;68.70;;;;;;4978148;28;20746;-68
2022/02/06 08:06:46;;;;;;;1.92;0.95;;;5.20;68.70;;;;;;4978663;28;20445;-68
2022/02/06 08:09:11;;;;;;;3.53;0.98;;;5.20;68.60;;;;;;4973938;28;20043;-68
2022/02/06 08:11:43;;;;;;;5.22;0.85;;;5.20;68.60;;;;;;4977057;28;20085;-68
2022/02/06 08:14:09;;;;;;;3.15;1.17;;;5.20;68.50;;;;;;4976692;28;20035;-67
2022/02/06 08:16:35;;;;;;;8.02;1.38;;;5.20;68.50;;;;;;4976458;28;20042;-68
2022/02/06 08:19:01;;;;;;;3.05;1.20;;;5.20;68.50;;;;;;4977971;28;20030;-68
2022/02/06 08:21:26;;;;;;;5.32;0.90;;;5.30;68.50;;;;;;4977766;28;20031;-68
2022/02/06 08:23:52;;;;;;;4.28;1.30;;;5.30;68.40;;;;;;4979277;28;20027;-68
2022/02/06 08:26:18;;;;;;;3.20;1.00;;;5.30;68.30;;;;;;4978267;28;20122;-68
2022/02/06 08:28:44;;;;;;;3.13;0.90;;;5.30;68.20;;;;;;4989798;28;20038;-68
2022/02/06 08:31:10;;;;;;;3.45;0.80;;;5.30;68.10;;;;;;4978217;28;20131;-67
2022/02/06 08:33:35;;;;;;;3.53;0.70;;;5.30;67.90;;;;;;4977323;28;20497;-67
2022/02/06 08:36:01;;;;;;;2.20;0.80;;;5.30;68.00;;;;;;4974995;28;20046;-67
2022/02/06 08:38:28;;;;;;;6.13;0.75;;;5.30;68.10;;;;;;4975966;28;20413;-66
2022/02/06 08:40:53;;;;;;;6.57;0.82;;;5.30;68.20;;;;;;4977123;28;20502;-67
2022/02/06 08:43:20;;;;;;;4.43;1.38;;;5.40;68.30;;;;;;4973814;28;20031;-67
2022/02/06 08:45:45;;;;;;;2.22;0.88;;;5.40;68.20;;;;;;4974967;28;20069;-67
2022/02/06 08:48:11;;;;;;;3.30;0.80;;;5.40;68.00;;;;;;4972470;28;20042;-68
2022/02/06 08:50:37;;;;;;;4.07;2.03;;;5.40;68.20;;;;;;4974930;28;20038;-68
2022/02/06 08:53:02;;;;;;;3.92;1.10;;;5.50;68.20;;;;;;4976554;28;20529;-68
2022/02/06 08:55:29;;;;;;;2.25;0.98;;;5.50;68.00;;;;;;4978538;28;20525;-68
2022/02/06 08:57:56;;;;;;;3.55;1.10;;;5.50;67.90;;;;;;4977076;28;20057;-68
2022/02/06 09:00:24;;;;;;;6.22;1.30;;;5.50;68.10;;;;;;4978828;28;20428;-68
2022/02/06 09:02:50;;;;;;;5.10;1.55;;;5.50;67.90;;;;;;4978399;28;20291;-68
2022/02/06 09:05:16;;;;;;;3.95;1.30;;;5.60;68.00;;;;;;4976556;28;20043;-68
2022/02/06 09:07:43;;;;;;;2.45;0.98;;;5.60;67.90;;;;;;4978206;28;20089;-67
2022/02/06 09:10:10;;;;;;;3.20;1.38;;;5.60;67.90;;;;;;4978782;28;20041;-67
2022/02/06 09:12:40;;;;;;;6.15;1.20;;;5.60;67.80;;;;;;4978483;28;20697;-67
2022/02/06 09:15:06;;;;;;;4.78;1.20;;;5.70;67.90;;;;;;4977656;28;20041;-67
2022/02/06 09:17:32;;;;;;;3.33;0.90;;;5.70;67.70;;;;;;4978440;28;20058;-68
2022/02/06 09:20:00;;;;;;;4.43;1.35;;;5.70;67.80;;;;;;4974717;28;20498;-67
2022/02/06 09:22:26;;;;;;;3.38;1.13;;;5.70;67.80;;;;;;4975327;28;20035;-67
2022/02/06 09:24:52;;;;;;;4.15;1.08;;;5.80;67.70;;;;;;4978824;28;20046;-68
2022/02/06 09:27:17;;;;;;;3.25;1.00;;;5.80;67.50;;;;;;4977421;28;20045;-68
2022/02/06 09:29:43;;;;;;;4.78;1.20;;;5.80;67.70;;;;;;4977521;28;20122;-67
2022/02/06 09:37:08;;;;;;;5.78;1.20;;;5.90;67.40;;;;;;4977806;28;20472;-67
2022/02/06 09:39:38;;;;;;;4.13;1.40;;;5.90;67.30;;;;;;4976960;28;20125;-67
2022/02/06 09:42:05;;;;;;;6.70;1.20;;;5.90;67.40;;;;;;4979018;28;20526;-67
2022/02/06 09:44:31;;;;;;;3.30;1.30;;;5.90;67.20;;;;;;4973951;28;20042;-68
2022/02/06 09:46:58;;;;;;;4.47;1.70;;;5.90;66.90;;;;;;4977344;28;20670;-68
2022/02/06 09:49:27;;;;;;;9.30;1.80;;;5.90;67.00;;;;;;4975532;28;20065;-67
2022/02/06 09:51:53;;;;;;;6.55;2.45;;;6.00;67.00;;;;;;4979285;28;20041;-67
2022/02/06 09:54:22;;;;;;;6.03;1.95;;;6.00;66.80;;;;;;4977162;28;20038;-67
2022/02/06 09:56:50;;;;;;;6.70;2.45;;;6.00;66.80;;;;;;4978161;28;20049;-67
2022/02/06 09:59:20;;;;;;;4.07;1.25;;;6.00;66.80;;;;;;4977923;28;20044;-67
2022/02/06 10:01:51;;;;;;;7.40;2.70;;;6.10;66.30;;;;;;4978855;28;20038;-68
2022/02/06 10:04:22;;;;;;;8.25;2.20;;;6.10;67.30;;;;;;4977613;28;20049;-67
2022/02/06 10:07:11;;;;;;;5.97;2.38;;;6.10;67.00;;;;;;4976629;28;20049;-67
2022/02/06 10:09:57;;;;;;;3.97;2.08;;;6.10;66.30;;;;;;4972500;28;20042;-67
2022/02/06 10:12:24;;;;;;;7.50;1.75;;;6.20;66.10;;;;;;4972278;28;20039;-68
2022/02/06 10:14:51;;;;;;;3.75;1.40;;;6.10;66.20;;;;;;4976668;28;20034;-67
2022/02/06 10:17:18;;;;;;;3.22;0.93;;;6.20;66.30;;;;;;4976845;28;20049;-67
2022/02/06 10:19:55;;;;;;;3.70;1.10;;;6.20;66.30;;;;;;4979606;28;20567;-66
2022/02/06 10:22:49;;;;;;;7.65;3.20;;;6.20;65.80;;;;;;4979401;28;20030;-67
2022/02/06 10:25:16;;;;;;;5.55;1.50;;;6.20;65.70;;;;;;4977638;28;20161;-67
2022/02/06 10:28:02;;;;;;;4.68;1.13;;;6.20;66.10;;;;;;4981993;28;20031;-67
2022/02/06 10:30:37;;;;;;;4.18;1.20;;;6.30;66.30;;;;;;4978376;28;20049;-68
2022/02/06 10:33:05;;;;;;;5.03;1.20;;;6.30;66.00;;;;;;4978301;28;20050;-67
2022/02/06 10:35:53;;;;;;;3.85;1.10;;;6.30;66.20;;;;;;4978855;28;20050;-67
2022/02/06 10:38:29;;;;;;;3.67;1.13;;;6.40;66.10;;;;;;4979980;28;20045;-66
2022/02/06 10:41:12;;;;;;;3.08;1.30;;;6.40;66.10;;;;;;4981152;28;20031;-67
2022/02/06 10:43:42;;;;;;;6.78;1.73;;;6.50;65.90;;;;;;4979973;28;20183;-67
2022/02/06 10:46:12;;;;;;;6.75;1.60;;;6.50;65.90;;;;;;4974161;28;20038;-68
2022/02/06 10:48:50;;;;;;;4.78;1.67;;;6.50;65.80;;;;;;4978367;28;20117;-67
2022/02/06 10:51:40;;;;;;;4.72;1.70;;;6.60;65.20;;;;;;4977536;28;20039;-67
2022/02/06 10:54:08;;;;;;;4.97;1.40;;;6.60;65.20;;;;;;4974338;28;20042;-67
2022/02/06 10:56:36;;;;;;;5.78;1.33;;;6.60;65.70;;;;;;4976673;28;20054;-67
2022/02/06 10:59:04;;;;;;;3.50;1.27;;;6.70;65.90;;;;;;4978234;28;20045;-67
2022/02/06 11:01:31;;;;;;;6.97;1.05;;;6.70;65.60;;;;;;4977874;28;20030;-68
2022/02/06 11:04:18;;;;;;;5.63;1.65;;;6.70;65.50;;;;;;4981533;28;20548;-68
2022/02/06 11:06:47;;;;;;;3.15;1.08;;;6.80;65.20;;;;;;4981500;28;20049;-67
2022/02/06 11:09:30;;;;;;;2.78;0.95;;;6.80;65.30;;;;;;4979624;28;20092;-67
2022/02/06 11:12:05;;;;;;;2.45;0.88;;;6.80;64.80;;;;;;4978948;28;20035;-68
2022/02/06 11:14:34;;;;;;;5.30;1.70;;;6.80;64.90;;;;;;4980159;28;20065;-67
2022/02/06 11:17:03;;;;;;;5.57;2.00;;;6.80;65.20;;;;;;4980242;28;20042;-67
2022/02/06 11:19:29;;;;;;;4.63;1.48;;;6.80;65.30;;;;;;4978205;28;20046;-67
2022/02/06 11:22:12;;;;;;;6.25;1.63;;;6.80;65.30;;;;;;4980040;28;20034;-67
2022/02/06 11:24:39;;;;;;;3.97;1.20;;;6.80;64.80;;;;;;4979391;28;20123;-68
2022/02/06 11:27:08;;;;;;;4.43;1.23;;;6.90;65.20;;;;;;4979448;28;20031;-67
2022/02/06 11:29:34;;;;;;;3.47;0.98;;;6.90;64.70;;;;;;4978613;28;20406;-67
2022/02/06 11:32:01;;;;;;;3.15;1.10;;;6.90;65.00;;;;;;4979327;28;20467;-67
2022/02/06 11:34:28;;;;;;;4.43;0.90;;;6.90;65.00;;;;;;4978807;28;20121;-68
2022/02/06 11:45:54;;;;;;;5.60;1.40;;;7.00;64.80;;;;;;4979635;28;20073;-67
2022/02/06 11:48:22;;;;;;;3.03;0.88;;;7.00;65.00;;;;;;4980265;28;20409;-67
2022/02/06 11:50:49;;;;;;;4.50;1.10;;;7.00;64.90;;;;;;4979459;28;20046;-67
2022/02/06 11:53:42;;;;;;;2.58;1.13;;;7.00;64.60;;;;;;4980466;28;20045;-67
2022/02/06 11:56:21;;;;;;;3.42;0.90;;;7.00;64.20;;;;;;4981319;28;20037;-67
2022/02/06 11:58:49;;;;;;;2.05;0.68;;;7.00;64.20;;;;;;4981100;28;20034;-67
2022/02/06 12:01:15;;;;;;;2.75;0.70;;;7.00;64.60;;;;;;4974760;28;20030;-67
2022/02/06 12:04:04;;;;;;;4.18;1.25;;;7.00;64.60;;;;;;4977707;28;20440;-67
2022/02/06 12:06:48;;;;;;;2.47;0.82;;;7.00;64.10;;;;;;4977471;28;20098;-67
2022/02/06 12:09:23;;;;;;;5.03;1.02;;;7.00;64.30;;;;;;4978546;28;20042;-66
2022/02/06 12:12:17;;;;;;;2.97;1.00;;;7.00;64.50;;;;;;4980256;28;20046;-66
2022/02/06 12:14:47;;;;;;;2.20;0.85;;;7.00;64.10;;;;;;4976496;28;20046;-67
2022/02/06 12:20:08;;;;;;;2.88;1.05;;;7.00;64.50;;;;;;4978465;28;20027;-67
2022/02/06 12:22:38;;;;;;;4.80;1.30;;;7.00;64.20;;;;;;4977947;28;20531;-67
2022/02/06 12:25:19;;;;;;;4.00;0.95;;;7.00;64.60;;;;;;4978872;28;20501;-66
2022/02/06 12:27:48;;;;;;;3.03;0.68;;;7.00;64.10;;;;;;4977677;28;20082;-67
2022/02/06 12:30:26;;;;;;;3.13;0.68;;;7.00;64.70;;;;;;4977005;28;20041;-67
2022/02/06 12:33:11;;;;;;;2.90;0.88;;;7.10;64.40;;;;;;4978505;28;20042;-66
2022/02/06 12:38:26;;;;;;;2.47;0.90;;;7.10;64.70;;;;;;4978703;28;20081;-67
2022/02/06 12:40:52;;;;;;;1.65;0.80;;;7.10;64.80;;;;;;4977397;28;20079;-67
2022/02/06 12:43:21;;;;;;;5.75;0.90;;;7.10;64.80;;;;;;4978093;28;20046;-67
2022/02/06 12:45:47;;;;;;;5.35;1.00;;;7.10;64.80;;;;;;4979674;28;20038;-67
2022/02/06 12:48:13;;;;;;;1.80;0.80;;;7.10;64.50;;;;;;4978784;28;20105;-67
2022/02/06 12:50:40;;;;;;;4.60;1.33;;;7.10;64.70;;;;;;4991466;28;20055;-67
2022/02/06 12:53:14;;;;;;;2.83;0.80;;;7.20;64.60;;;;;;4978086;28;20089;-67
2022/02/06 12:55:39;;;;;;;1.57;1.10;;;7.20;64.40;;;;;;4979003;28;20441;-68
2022/02/06 12:58:08;;;;;;;1.30;0.70;;;7.20;64.20;;;;;;4978146;28;20305;-66
2022/02/06 13:00:42;;;;;;;1.52;0.75;;;7.20;64.60;;;;;;4978040;28;20038;-67
2022/02/06 13:03:29;;;;;;;2.22;0.70;;;7.30;65.30;;;;;;4977385;28;20034;-67
2022/02/06 13:06:08;;;;;;;2.20;0.98;;;7.30;64.10;;;;;;4977775;28;20035;-67
2022/02/06 13:08:38;;;;;;;2.17;0.80;;;7.30;64.30;;;;;;4977686;28;20426;-68
2022/02/06 13:11:10;;;;;;;2.65;0.73;;;7.30;64.60;;;;;;4980897;28;20038;-67
2022/02/06 13:16:23;;;;;;;8.27;3.28;;;7.40;64.10;;;;;;4979239;28;20030;-67
2022/02/06 13:19:17;;;;;;;2.45;1.33;;;7.40;65.20;;;;;;4979763;28;20516;-67
2022/02/06 13:22:47;;;;;;;3.10;0.70;;;7.40;64.50;;;;;;4978793;28;20445;-67
2022/02/06 13:30:21;;;;;;;5.63;1.10;;;7.50;64.30;;;;;;4975663;28;20030;-67
2022/02/06 13:37:46;;;;;;;1.80;1.00;;;7.50;63.80;;;;;;4977809;28;20054;-68
2022/02/06 13:40:19;;;;;;;3.88;1.70;;;7.60;64.20;;;;;;4978529;28;20075;-67
2022/02/06 13:42:57;;;;;;;3.40;1.25;;;7.60;64.10;;;;;;4977686;28;20037;-68
2022/02/06 13:45:25;;;;;;;1.33;0.77;;;7.60;63.90;;;;;;4980835;28;20039;-67
2022/02/06 13:47:51;;;;;;;3.40;1.60;;;7.60;64.00;;;;;;4990174;28;20034;-66
2022/02/06 13:50:17;;;;;;;2.70;1.80;;;7.60;63.80;;;;;;4976953;28;20133;-68
2022/02/06 13:52:45;;;;;;;5.50;1.80;;;7.70;64.10;;;;;;4979020;28;20114;-66
2022/02/06 13:55:16;;;;;;;1.45;0.70;;;7.70;64.10;;;;;;4982360;28;20093;-67
2022/02/06 13:57:43;;;;;;;0.80;0.65;;;7.70;63.80;;;;;;4981578;28;20046;-67
2022/02/06 14:00:10;;;;;;;2.90;1.10;;;7.70;64.00;;;;;;4979791;28;20038;-70
2022/02/06 14:02:37;;;;;;;3.15;1.40;;;7.70;63.80;;;;;;4980391;28;20031;-69
2022/02/06 14:05:09;;;;;;;1.42;0.93;;;7.80;63.80;;;;;;4982064;28;20031;-68
2022/02/06 14:07:35;;;;;;;3.88;1.42;;;7.80;63.80;;;;;;4981271;28;20517;-69
2022/02/06 14:12:45;;;;;;;4.13;1.90;;;7.80;63.60;;;;;;4982588;28;20101;-67
2022/02/06 14:15:28;;;;;;;11.57;1.73;;;7.80;63.70;;;;;;4980337;28;20039;-67
2022/02/06 14:17:57;;;;;;;2.13;1.00;;;7.80;63.50;;;;;;4981419;28;20042;-68
2022/02/06 14:20:25;;;;;;;1.95;0.90;;;7.80;63.80;;;;;;4980110;28;20065;-67
2022/02/06 14:22:57;;;;;;;2.25;0.90;;;7.80;63.60;;;;;;4979757;28;20580;-68
2022/02/06 14:25:28;;;;;;;3.28;0.90;;;7.90;63.40;;;;;;4981804;28;20030;-68
2022/02/06 14:27:54;;;;;;;3.38;0.77;;;7.80;63.50;;;;;;4981295;28;20042;-68
2022/02/06 14:30:27;;;;;;;3.60;1.88;;;7.80;63.60;;;;;;4977551;28;20035;-68
2022/02/06 14:33:06;;;;;;;2.20;1.10;;;7.80;63.30;;;;;;4978803;28;20043;-68
2022/02/06 14:35:53;;;;;;;3.13;1.50;;;7.90;63.20;;;;;;4982160;28;20073;-68
2022/02/06 14:38:35;;;;;;;2.90;1.83;;;7.80;62.90;;;;;;4980048;28;20495;-68
2022/02/06 14:43:42;;;;;;;1.15;0.70;;;7.90;63.10;;;;;;4979743;28;20035;-68
2022/02/06 14:46:09;;;;;;;2.55;0.70;;;7.90;63.30;;;;;;4979473;28;20725;-68
2022/02/06 14:48:34;;;;;;;3.30;0.77;;;7.90;63.30;;;;;;4979902;28;20039;-68
2022/02/06 14:51:00;;;;;;;4.20;2.08;;;7.90;63.30;;;;;;4981174;28;20061;-68
2022/02/06 14:53:26;;;;;;;7.28;1.50;;;7.90;63.50;;;;;;4979905;28;20035;-68
2022/02/06 14:55:57;;;;;;;4.18;1.10;;;7.90;63.30;;;;;;4980299;28;20030;-68
2022/02/06 14:58:24;;;;;;;2.75;1.80;;;7.90;63.40;;;;;;4979706;28;20046;-68
2022/02/06 15:00:51;;;;;;;4.20;2.65;;;8.00;63.40;;;;;;4979052;28;20031;-69
2022/02/06 15:03:20;;;;;;;2.47;1.45;;;8.00;63.60;;;;;;4979396;28;20502;-66
2022/02/06 15:05:47;;;;;;;2.75;1.15;;;8.00;63.50;;;;;;4979880;28;20038;-67
2022/02/06 15:08:13;;;;;;;0.82;0.80;;;8.00;63.40;;;;;;4980282;28;20093;-67
2022/02/06 15:10:39;;;;;;;2.15;1.10;;;8.00;63.40;;;;;;4981180;28;20076;-67
2022/02/06 15:13:09;;;;;;;2.05;1.20;;;8.00;64.40;;;;;;4981567;28;20404;-68
2022/02/06 15:15:46;;;;;;;4.68;2.80;;;8.00;63.40;;;;;;4979902;28;20505;-69
2022/02/06 15:20:47;;;;;;;2.42;1.10;;;8.00;64.00;;;;;;4979014;28;20094;-68
2022/02/06 15:23:13;;;;;;;2.45;1.65;;;8.00;64.10;;;;;;4980116;28;20031;-68
2022/02/06 15:25:38;;;;;;;2.47;1.35;;;8.00;64.30;;;;;;4977468;28;20086;-68
2022/02/06 15:28:04;;;;;;;3.90;1.60;;;8.00;64.30;;;;;;4979254;28;20096;-66
2022/02/06 15:30:31;;;;;;;8.95;5.03;;;7.90;64.30;;;;;;4975944;28;20088;-67
2022/02/06 15:32:56;;;;;;;1.55;1.20;;;7.90;64.50;;;;;;4976728;28;20046;-68
2022/02/06 15:35:22;;;;;;;1.20;1.02;;;7.90;64.70;;;;;;4976237;28;20440;-68
2022/02/06 15:37:48;;;;;;;1.45;1.02;;;7.90;65.80;;;;;;4978983;28;20062;-68
2022/02/06 15:40:17;;;;;;;2.25;0.80;;;7.90;65.10;;;;;;4978266;28;20413;-68
2022/02/06 15:42:44;;;;;;;1.23;0.70;;;7.90;65.20;;;;;;4980508;28;20045;-68
2022/02/06 15:45:10;;;;;;;1.10;0.60;;;7.80;65.30;;;;;;4982218;28;20158;-68
2022/02/06 15:47:35;;;;;;;0.95;0.68;;;7.80;65.50;;;;;;4983475;28;20516;-69
2022/02/06 15:50:02;;;;;;;1.35;0.70;;;7.80;65.70;;;;;;4982502;28;20066;-69
2022/02/06 15:52:28;;;;;;;2.42;0.80;;;7.80;66.00;;;;;;4980979;28;20038;-68
2022/02/06 15:54:54;;;;;;;1.30;0.45;;;7.80;66.00;;;;;;4983127;28;20089;-68
2022/02/06 15:57:20;;;;;;;0.75;0.40;;;7.80;66.10;;;;;;4980115;28;20043;-69
2022/02/06 15:59:47;;;;;;;1.48;0.47;;;7.80;66.30;;;;;;4980926;28;20065;-68